Time;durP1;ratioP1;P1;durP2;ratioP2;P2;SDS_P1;SDS_P2;PMS_P1;PMS_P2;Temp;Humidity;BMP_temperature;BMP_pressure;BME280_temperature;BME280_humidity;BME280_pressure;Samples;Min_cycle;Max_cycle;Signal;HPM_P1;HPM_P2
2021/10/14 00:00:21;;;;;;;22.27;3.93;;;12.10;99.90;;;;;;5075863;28;20483;-83
2021/10/14 00:02:50;;;;;;;22.23;3.80;;;12.00;99.90;;;;;;5072291;28;20464;-82
2021/10/14 00:05:17;;;;;;;20.03;2.90;;;12.10;99.90;;;;;;5066227;28;20948;-83
2021/10/14 00:07:43;;;;;;;19.93;3.13;;;12.10;99.90;;;;;;5071386;28;20456;-82
2021/10/14 00:10:10;;;;;;;22.70;3.67;;;12.10;99.90;;;;;;5069387;28;20455;-82
2021/10/14 00:12:37;;;;;;;20.60;3.80;;;12.10;99.90;;;;;;5068792;28;20469;-83
2021/10/14 00:15:09;;;;;;;19.90;3.27;;;12.10;99.90;;;;;;5074146;28;20449;-82
2021/10/14 00:17:35;;;;;;;18.30;3.87;;;12.00;99.90;;;;;;5072535;28;20454;-82
2021/10/14 00:20:05;;;;;;;22.03;3.33;;;12.10;99.90;;;;;;5075132;28;20450;-82
2021/10/14 00:22:32;;;;;;;22.50;4.57;;;12.10;99.90;;;;;;5076166;28;20501;-82
2021/10/14 00:24:59;;;;;;;22.70;3.47;;;12.10;99.90;;;;;;5079021;28;20943;-82
2021/10/14 00:27:26;;;;;;;22.33;4.00;;;12.10;99.90;;;;;;5062346;28;20481;-82
2021/10/14 00:29:53;;;;;;;19.10;3.43;;;12.10;99.90;;;;;;5079835;28;20820;-82
2021/10/14 00:32:20;;;;;;;28.47;3.93;;;12.10;99.90;;;;;;5063017;28;20545;-82
2021/10/14 00:34:46;;;;;;;22.07;3.90;;;12.00;99.90;;;;;;5073430;28;20442;-82
2021/10/14 00:37:15;;;;;;;20.33;3.70;;;12.10;99.90;;;;;;5064654;28;20823;-83
2021/10/14 00:39:42;;;;;;;20.73;4.17;;;12.10;99.90;;;;;;5072456;28;20456;-82
2021/10/14 00:42:09;;;;;;;23.10;3.30;;;12.10;99.90;;;;;;5079296;28;20490;-83
2021/10/14 00:44:44;;;;;;;17.47;3.80;;;12.10;99.90;;;;;;5065564;28;20452;-83
2021/10/14 00:47:10;;;;;;;19.23;3.30;;;12.00;99.90;;;;;;5065415;28;20439;-82
2021/10/14 00:49:39;;;;;;;18.63;3.27;;;12.00;99.90;;;;;;5068145;28;20475;-81
2021/10/14 00:52:06;;;;;;;21.70;3.60;;;12.10;99.90;;;;;;5058963;28;20534;-81
2021/10/14 00:54:34;;;;;;;26.50;3.30;;;12.10;99.90;;;;;;5059266;28;20455;-82
2021/10/14 00:57:01;;;;;;;19.17;3.07;;;12.10;99.90;;;;;;5066576;28;20465;-82
2021/10/14 00:59:30;;;;;;;19.33;3.40;;;12.00;99.90;;;;;;5079683;28;20460;-81
2021/10/14 01:01:57;;;;;;;20.43;3.67;;;12.10;99.90;;;;;;5078748;28;20483;-82
2021/10/14 01:04:24;;;;;;;23.87;4.13;;;12.00;99.90;;;;;;5078762;28;20447;-82
2021/10/14 01:06:51;;;;;;;22.90;3.77;;;12.00;99.90;;;;;;5060064;28;20534;-82
2021/10/14 01:09:18;;;;;;;22.17;4.10;;;12.10;99.90;;;;;;5059206;28;20453;-83
2021/10/14 01:11:46;;;;;;;23.33;3.60;;;12.00;99.90;;;;;;5059797;28;20451;-82
2021/10/14 01:14:13;;;;;;;19.90;3.77;;;11.90;99.90;;;;;;5059230;28;20464;-82
2021/10/14 01:16:40;;;;;;;22.43;3.87;;;11.90;99.90;;;;;;5058335;28;20978;-82
2021/10/14 01:19:07;;;;;;;24.57;4.33;;;11.90;99.90;;;;;;5064955;28;20821;-83
2021/10/14 01:21:36;;;;;;;24.40;5.23;;;12.00;99.90;;;;;;5078651;28;20500;-82
2021/10/14 01:24:03;;;;;;;23.53;4.67;;;12.00;99.90;;;;;;5078231;28;20473;-81
2021/10/14 01:26:30;;;;;;;23.77;5.13;;;12.00;99.90;;;;;;5078256;28;20443;-82
2021/10/14 01:28:58;;;;;;;26.07;5.10;;;12.10;99.90;;;;;;5079348;28;20449;-82
2021/10/14 01:31:25;;;;;;;21.50;5.40;;;12.10;99.90;;;;;;5078162;28;20454;-82
2021/10/14 01:33:52;;;;;;;23.30;5.53;;;12.10;99.90;;;;;;5078182;28;20475;-81
2021/10/14 01:36:19;;;;;;;21.43;4.70;;;12.00;99.90;;;;;;5064936;28;20458;-83
2021/10/14 01:38:47;;;;;;;24.07;4.70;;;12.10;99.90;;;;;;5058931;28;20529;-82
2021/10/14 01:41:14;;;;;;;23.13;5.77;;;12.10;99.90;;;;;;5058907;28;20491;-82
2021/10/14 01:43:41;;;;;;;26.50;5.70;;;12.00;99.90;;;;;;5058587;28;20481;-82
2021/10/14 01:46:09;;;;;;;22.60;6.20;;;12.00;99.90;;;;;;5059118;28;20451;-82
2021/10/14 01:48:36;;;;;;;27.30;6.63;;;12.00;99.90;;;;;;5061631;28;20458;-82
2021/10/14 01:51:03;;;;;;;23.63;6.40;;;11.90;99.90;;;;;;5073022;28;20492;-83
2021/10/14 01:53:30;;;;;;;21.00;6.40;;;11.90;99.90;;;;;;5074607;28;20474;-81
2021/10/14 01:55:59;;;;;;;24.40;7.00;;;11.80;99.90;;;;;;5078270;28;20460;-81
2021/10/14 01:58:25;;;;;;;23.03;7.03;;;11.70;99.90;;;;;;5077953;28;20461;-80
2021/10/14 02:00:53;;;;;;;23.17;7.33;;;11.70;99.90;;;;;;5077601;28;20466;-80
2021/10/14 02:03:20;;;;;;;24.13;7.40;;;11.60;99.90;;;;;;5071406;28;20476;-82
2021/10/14 02:05:47;;;;;;;24.23;7.00;;;11.60;99.90;;;;;;5058675;28;20447;-82
2021/10/14 02:08:14;;;;;;;26.17;8.60;;;11.50;99.90;;;;;;5057502;28;20447;-82
2021/10/14 02:10:42;;;;;;;26.70;7.53;;;11.40;99.90;;;;;;5057644;28;20450;-80
2021/10/14 02:13:10;;;;;;;25.03;7.80;;;11.50;99.90;;;;;;5057571;28;20480;-81
2021/10/14 02:15:37;;;;;;;24.13;8.70;;;11.40;99.90;;;;;;5057592;28;20456;-81
2021/10/14 02:18:03;;;;;;;31.53;9.20;;;11.40;99.90;;;;;;5057653;28;20553;-81
2021/10/14 02:20:30;;;;;;;28.53;8.70;;;11.40;99.90;;;;;;5058631;28;20455;-81
2021/10/14 02:22:57;;;;;;;23.23;7.90;;;11.40;99.90;;;;;;5057614;28;21199;-81
2021/10/14 02:25:24;;;;;;;24.33;9.00;;;11.40;99.90;;;;;;5057013;28;20944;-81
2021/10/14 02:27:51;;;;;;;25.53;9.07;;;11.30;99.90;;;;;;5057523;28;20548;-81
2021/10/14 02:30:19;;;;;;;23.83;9.63;;;11.30;99.90;;;;;;5057997;28;20455;-81
2021/10/14 02:32:46;;;;;;;29.03;10.00;;;11.30;99.90;;;;;;5058257;28;20985;-81
2021/10/14 02:35:13;;;;;;;26.47;10.40;;;11.30;99.90;;;;;;5053505;28;20971;-80
2021/10/14 02:37:41;;;;;;;27.07;9.73;;;11.20;99.90;;;;;;5056162;28;20450;-80
2021/10/14 02:40:09;;;;;;;27.63;10.17;;;11.20;99.90;;;;;;5074807;28;20462;-79
2021/10/14 02:42:36;;;;;;;25.43;10.50;;;11.20;99.90;;;;;;5072721;28;20490;-79
2021/10/14 02:45:03;;;;;;;27.73;10.30;;;11.30;99.90;;;;;;5073672;28;20446;-79
2021/10/14 02:47:31;;;;;;;29.73;11.27;;;11.30;99.90;;;;;;5072873;28;20984;-79
2021/10/14 02:49:58;;;;;;;27.70;11.30;;;11.20;99.90;;;;;;5073348;28;20461;-80
2021/10/14 02:52:25;;;;;;;23.23;9.40;;;11.20;99.90;;;;;;5072120;28;21012;-80
2021/10/14 02:54:52;;;;;;;25.57;10.03;;;11.20;99.90;;;;;;5073126;28;20456;-79
2021/10/14 02:57:19;;;;;;;24.70;8.60;;;11.20;99.90;;;;;;5072445;28;20446;-79
2021/10/14 02:59:46;;;;;;;26.37;10.00;;;11.20;99.90;;;;;;5072926;28;20455;-79
2021/10/14 03:02:13;;;;;;;24.20;8.87;;;11.10;99.90;;;;;;5072729;28;20492;-80
2021/10/14 03:04:41;;;;;;;26.77;10.50;;;11.20;99.90;;;;;;5072865;28;20454;-79
2021/10/14 03:07:07;;;;;;;25.50;9.50;;;11.20;99.90;;;;;;5072180;28;20456;-80
2021/10/14 03:09:34;;;;;;;22.60;8.87;;;11.20;99.90;;;;;;5061129;28;20459;-79
2021/10/14 03:12:01;;;;;;;24.80;8.63;;;11.20;99.90;;;;;;5052118;28;20447;-79
2021/10/14 03:14:28;;;;;;;21.97;8.27;;;11.30;99.90;;;;;;5052272;28;20454;-79
2021/10/14 03:16:55;;;;;;;24.53;9.73;;;11.20;99.90;;;;;;5060512;28;20461;-80
2021/10/14 03:19:21;;;;;;;26.30;9.70;;;11.20;99.90;;;;;;5066925;28;20455;-81
2021/10/14 03:21:50;;;;;;;29.37;10.23;;;11.10;99.90;;;;;;5058517;28;20486;-82
2021/10/14 03:24:17;;;;;;;24.53;8.63;;;11.20;99.90;;;;;;5057932;28;20445;-81
2021/10/14 03:26:43;;;;;;;22.87;8.83;;;11.20;99.90;;;;;;5059261;28;20462;-80
2021/10/14 03:29:10;;;;;;;24.60;9.37;;;11.20;99.90;;;;;;5057273;28;20452;-80
2021/10/14 03:31:37;;;;;;;23.17;9.93;;;11.20;99.90;;;;;;5057208;28;20450;-80
2021/10/14 03:34:04;;;;;;;25.40;11.53;;;11.10;99.90;;;;;;5057013;28;20479;-80
2021/10/14 03:36:31;;;;;;;26.80;10.30;;;11.10;99.90;;;;;;5056589;28;20459;-82
2021/10/14 03:38:59;;;;;;;25.40;9.20;;;11.10;99.90;;;;;;5056510;28;20465;-81
2021/10/14 03:41:26;;;;;;;25.40;9.53;;;11.10;99.90;;;;;;5058959;28;20458;-81
2021/10/14 03:43:53;;;;;;;26.50;10.77;;;11.10;99.90;;;;;;5076363;28;20470;-81
2021/10/14 03:46:19;;;;;;;29.37;10.27;;;11.20;99.90;;;;;;5076993;28;20460;-80
2021/10/14 03:48:46;;;;;;;26.67;10.70;;;11.20;99.90;;;;;;5078797;28;20449;-80
2021/10/14 03:51:13;;;;;;;25.73;10.10;;;11.20;99.90;;;;;;5088935;28;20456;-80
2021/10/14 03:53:40;;;;;;;22.90;9.40;;;11.10;99.90;;;;;;5076135;28;20473;-81
2021/10/14 03:56:08;;;;;;;32.23;10.53;;;11.10;99.90;;;;;;5079503;28;20959;-80
2021/10/14 03:58:35;;;;;;;25.50;10.20;;;11.10;99.90;;;;;;5069524;28;20974;-80
2021/10/14 04:01:02;;;;;;;25.43;10.97;;;11.20;99.90;;;;;;5059573;28;20454;-80
2021/10/14 04:03:28;;;;;;;25.30;9.73;;;11.20;99.90;;;;;;5059935;28;20500;-80
2021/10/14 04:05:55;;;;;;;28.80;10.07;;;11.20;99.90;;;;;;5058863;28;20466;-80
2021/10/14 04:08:22;;;;;;;27.80;11.63;;;11.30;99.90;;;;;;5059727;28;20442;-80
2021/10/14 04:10:49;;;;;;;27.70;11.37;;;11.20;99.90;;;;;;5059357;28;20830;-81
2021/10/14 04:13:17;;;;;;;27.00;11.67;;;11.20;99.90;;;;;;5060030;28;20477;-81
2021/10/14 04:15:44;;;;;;;31.70;11.87;;;11.30;99.90;;;;;;5077115;28;20454;-80
2021/10/14 04:18:12;;;;;;;30.43;12.80;;;11.30;99.90;;;;;;5079473;28;20450;-80
2021/10/14 04:20:39;;;;;;;31.13;12.90;;;11.30;99.90;;;;;;5079732;28;20808;-80
2021/10/14 04:23:06;;;;;;;31.10;12.23;;;11.30;99.90;;;;;;5079213;28;20521;-80
2021/10/14 04:25:33;;;;;;;26.47;11.30;;;11.40;99.90;;;;;;5078976;28;20454;-80
2021/10/14 04:28:00;;;;;;;29.53;12.60;;;11.40;99.90;;;;;;5069800;28;20462;-80
2021/10/14 04:30:28;;;;;;;32.53;15.87;;;11.40;99.90;;;;;;5073355;28;20976;-81
2021/10/14 04:32:55;;;;;;;32.33;12.57;;;11.30;99.90;;;;;;5079017;28;20994;-80
2021/10/14 04:35:22;;;;;;;31.33;14.27;;;11.40;99.90;;;;;;5079345;28;20450;-81
2021/10/14 04:37:49;;;;;;;34.67;13.00;;;11.40;99.90;;;;;;5064628;28;21117;-82
2021/10/14 04:40:16;;;;;;;33.10;14.40;;;11.40;99.90;;;;;;5064945;28;20447;-82
2021/10/14 04:42:43;;;;;;;35.40;15.80;;;11.40;99.90;;;;;;5061662;28;20492;-81
2021/10/14 04:45:10;;;;;;;34.50;15.10;;;11.30;99.90;;;;;;5078843;28;20537;-80
2021/10/14 04:47:39;;;;;;;36.53;16.33;;;11.30;99.90;;;;;;5075313;28;20457;-81
2021/10/14 04:50:07;;;;;;;34.90;15.73;;;11.40;99.90;;;;;;5071548;28;20487;-81
2021/10/14 04:52:34;;;;;;;36.33;16.77;;;11.40;99.90;;;;;;5078995;28;20477;-81
2021/10/14 04:55:01;;;;;;;38.10;20.13;;;11.50;99.90;;;;;;5076061;28;20448;-81
2021/10/14 04:57:28;;;;;;;44.00;22.20;;;11.40;99.90;;;;;;5073900;28;20446;-81
2021/10/14 04:59:54;;;;;;;41.73;19.80;;;11.50;99.90;;;;;;5075286;28;20466;-81
2021/10/14 05:02:21;;;;;;;38.27;18.07;;;11.50;99.90;;;;;;5072953;28;20486;-81
2021/10/14 05:04:49;;;;;;;44.40;20.17;;;11.50;99.90;;;;;;5069899;28;20462;-82
2021/10/14 05:07:16;;;;;;;42.60;19.63;;;11.50;99.90;;;;;;5071106;28;20457;-82
2021/10/14 05:09:43;;;;;;;42.97;20.20;;;11.50;99.90;;;;;;5078958;28;21015;-80
2021/10/14 05:12:10;;;;;;;43.47;20.33;;;11.60;99.90;;;;;;5078727;28;20445;-81
2021/10/14 05:14:36;;;;;;;46.73;21.13;;;11.60;99.90;;;;;;5079065;28;20450;-81
2021/10/14 05:17:03;;;;;;;41.20;19.63;;;11.60;99.90;;;;;;5078529;28;20454;-80
2021/10/14 05:19:30;;;;;;;52.03;23.07;;;11.60;99.90;;;;;;5078616;28;20463;-81
2021/10/14 05:21:58;;;;;;;62.00;26.80;;;11.60;99.90;;;;;;5058306;28;20451;-82
2021/10/14 05:24:25;;;;;;;41.90;20.93;;;11.50;99.90;;;;;;5058568;28;20465;-81
2021/10/14 05:26:52;;;;;;;42.13;20.20;;;11.50;99.90;;;;;;5058746;28;20526;-81
2021/10/14 05:29:19;;;;;;;49.13;22.30;;;11.50;99.90;;;;;;5058770;28;20512;-81
2021/10/14 05:31:45;;;;;;;56.40;25.13;;;11.60;99.90;;;;;;5058226;28;20973;-81
2021/10/14 05:34:12;;;;;;;44.27;21.27;;;11.60;99.90;;;;;;5058958;28;20493;-81
2021/10/14 05:36:39;;;;;;;46.37;22.67;;;11.50;99.90;;;;;;5060314;28;20458;-81
2021/10/14 05:39:07;;;;;;;42.40;21.90;;;11.60;99.90;;;;;;5058869;28;20538;-81
2021/10/14 05:41:34;;;;;;;49.90;22.67;;;11.60;99.90;;;;;;5057770;28;20457;-81
2021/10/14 05:44:01;;;;;;;48.50;21.00;;;11.60;99.90;;;;;;5058595;28;20559;-81
2021/10/14 05:46:28;;;;;;;48.97;21.73;;;11.60;99.90;;;;;;5058870;28;20542;-81
2021/10/14 05:48:54;;;;;;;48.67;24.63;;;11.60;99.90;;;;;;5062383;28;20518;-79
2021/10/14 05:51:21;;;;;;;45.07;22.23;;;11.60;99.90;;;;;;5070834;28;20455;-80
2021/10/14 05:53:48;;;;;;;44.27;21.67;;;11.60;99.90;;;;;;5058117;28;20472;-82
2021/10/14 05:56:16;;;;;;;48.40;24.73;;;11.70;99.90;;;;;;5057930;28;20461;-81
2021/10/14 05:58:43;;;;;;;51.80;23.87;;;11.60;99.90;;;;;;5058036;28;20512;-81
2021/10/14 06:01:10;;;;;;;47.27;23.03;;;11.60;99.90;;;;;;5061529;28;20845;-80
2021/10/14 06:03:37;;;;;;;46.57;23.83;;;11.60;99.90;;;;;;5066194;28;21005;-81
2021/10/14 06:06:04;;;;;;;50.90;23.27;;;11.50;99.90;;;;;;5068746;28;20549;-81
2021/10/14 06:08:31;;;;;;;50.17;22.17;;;11.50;99.90;;;;;;5068118;28;20469;-80
2021/10/14 06:10:58;;;;;;;45.83;22.63;;;11.50;99.90;;;;;;5067969;28;20808;-81
2021/10/14 06:13:26;;;;;;;46.93;22.33;;;11.50;99.90;;;;;;5071245;28;20477;-81
2021/10/14 06:15:53;;;;;;;44.17;19.17;;;11.60;99.90;;;;;;5066234;28;20442;-81
2021/10/14 06:18:20;;;;;;;44.43;20.60;;;11.60;99.90;;;;;;5065480;28;20526;-81
2021/10/14 06:20:47;;;;;;;42.50;20.23;;;11.60;99.90;;;;;;5066061;28;20445;-80
2021/10/14 06:23:14;;;;;;;42.17;20.17;;;11.60;99.90;;;;;;5066620;28;20500;-82
2021/10/14 06:25:40;;;;;;;39.20;19.23;;;11.70;99.90;;;;;;5065194;28;20979;-81
2021/10/14 06:28:07;;;;;;;43.43;18.33;;;11.70;99.90;;;;;;5066393;28;20446;-80
2021/10/14 06:30:36;;;;;;;41.03;19.50;;;11.70;99.90;;;;;;5073360;28;20492;-81
2021/10/14 06:33:02;;;;;;;39.40;19.30;;;11.60;99.90;;;;;;5076618;28;20549;-80
2021/10/14 06:35:29;;;;;;;43.23;21.60;;;11.60;99.90;;;;;;5066469;28;20488;-81
2021/10/14 06:37:58;;;;;;;41.00;19.50;;;11.60;99.90;;;;;;5065562;28;20435;-81
2021/10/14 06:40:25;;;;;;;45.53;21.30;;;11.60;99.90;;;;;;5066708;28;20444;-81
2021/10/14 06:42:52;;;;;;;36.70;17.70;;;11.60;99.90;;;;;;5064474;28;20500;-81
2021/10/14 06:45:19;;;;;;;46.67;20.90;;;11.70;99.90;;;;;;5072092;28;20443;-82
2021/10/14 06:47:47;;;;;;;36.67;17.67;;;11.60;99.90;;;;;;5069452;28;20446;-79
2021/10/14 06:50:14;;;;;;;35.00;17.03;;;11.50;99.90;;;;;;5056690;28;20442;-80
2021/10/14 06:52:40;;;;;;;44.20;21.60;;;11.60;99.90;;;;;;5083782;28;20470;-81
2021/10/14 06:55:08;;;;;;;41.03;18.90;;;11.50;99.90;;;;;;5078097;28;20450;-81
2021/10/14 06:57:35;;;;;;;38.20;18.87;;;11.50;99.90;;;;;;5077912;28;20463;-81
2021/10/14 07:00:02;;;;;;;37.40;17.70;;;11.50;99.90;;;;;;5065602;28;20521;-81
2021/10/14 07:02:29;;;;;;;39.87;17.73;;;11.50;99.90;;;;;;5072784;28;20932;-82
2021/10/14 07:04:57;;;;;;;36.53;17.43;;;11.50;99.90;;;;;;5067350;28;21152;-81
2021/10/14 07:07:24;;;;;;;40.13;18.53;;;11.60;99.90;;;;;;5074550;28;20450;-81
2021/10/14 07:09:50;;;;;;;33.70;16.30;;;11.60;99.90;;;;;;5065370;28;20443;-81
2021/10/14 07:12:17;;;;;;;35.70;16.40;;;11.60;99.90;;;;;;5072767;28;20462;-82
2021/10/14 07:14:45;;;;;;;36.20;15.80;;;11.50;99.90;;;;;;5056725;28;20472;-82
2021/10/14 07:17:11;;;;;;;36.80;17.33;;;11.50;99.90;;;;;;5057224;28;20470;-81
2021/10/14 07:19:38;;;;;;;37.20;16.67;;;11.50;99.90;;;;;;5069753;28;20479;-82
2021/10/14 07:22:07;;;;;;;34.07;16.40;;;11.50;99.90;;;;;;5060757;28;20450;-81
2021/10/14 07:24:33;;;;;;;37.20;16.67;;;11.50;99.90;;;;;;5058676;28;20494;-81
2021/10/14 07:27:00;;;;;;;34.27;16.50;;;11.50;99.90;;;;;;5061011;28;20459;-82
2021/10/14 07:29:28;;;;;;;31.77;13.60;;;11.60;99.90;;;;;;5068275;28;20856;-82
2021/10/14 07:31:55;;;;;;;34.37;15.93;;;11.60;99.90;;;;;;5069578;28;20466;-82
2021/10/14 07:34:22;;;;;;;35.00;14.93;;;11.60;99.90;;;;;;5069433;28;20449;-82
2021/10/14 07:36:49;;;;;;;32.07;14.23;;;11.60;99.90;;;;;;5069417;28;20466;-82
2021/10/14 07:39:17;;;;;;;29.90;13.27;;;11.60;99.90;;;;;;5062854;28;20445;-81
2021/10/14 07:41:46;;;;;;;32.70;15.30;;;11.60;99.90;;;;;;5071557;28;20435;-81
2021/10/14 07:44:13;;;;;;;32.03;15.00;;;11.60;99.90;;;;;;5080435;28;20520;-82
2021/10/14 07:46:40;;;;;;;31.07;13.60;;;11.50;99.90;;;;;;5079666;28;21134;-82
2021/10/14 07:49:07;;;;;;;32.40;14.70;;;11.60;99.90;;;;;;5066654;28;20451;-80
2021/10/14 07:51:35;;;;;;;32.93;15.87;;;11.60;99.90;;;;;;5072755;28;20458;-81
2021/10/14 07:54:01;;;;;;;35.50;16.40;;;11.60;99.90;;;;;;5059657;28;20532;-81
2021/10/14 07:56:30;;;;;;;37.17;17.77;;;11.70;99.90;;;;;;5058753;28;20832;-81
2021/10/14 07:58:57;;;;;;;34.30;18.20;;;11.70;99.90;;;;;;5061246;28;20462;-81
2021/10/14 08:01:23;;;;;;;36.90;18.27;;;11.70;99.90;;;;;;5080288;28;20452;-81
2021/10/14 08:03:50;;;;;;;41.67;20.47;;;11.80;99.90;;;;;;5080107;28;20482;-81
2021/10/14 08:06:18;;;;;;;45.10;20.10;;;11.70;99.90;;;;;;5079659;28;20444;-82
2021/10/14 08:08:44;;;;;;;57.20;26.13;;;11.80;99.90;;;;;;5080031;28;20521;-83
2021/10/14 08:11:12;;;;;;;47.90;23.93;;;11.70;99.90;;;;;;5079789;28;20454;-82
2021/10/14 08:13:40;;;;;;;56.03;26.00;;;11.70;99.90;;;;;;5073484;28;20466;-83
2021/10/14 08:16:07;;;;;;;51.07;25.10;;;11.70;99.90;;;;;;5059938;28;20465;-80
2021/10/14 08:18:35;;;;;;;46.70;24.63;;;11.70;99.90;;;;;;5062209;28;20451;-82
2021/10/14 08:21:02;;;;;;;50.20;28.40;;;11.70;99.90;;;;;;5060961;28;20955;-82
2021/10/14 08:23:30;;;;;;;51.53;26.70;;;11.70;99.90;;;;;;5060620;28;20487;-83
2021/10/14 08:25:57;;;;;;;55.93;29.50;;;11.80;99.90;;;;;;5061011;28;20448;-83
2021/10/14 08:28:26;;;;;;;51.23;27.43;;;11.80;99.90;;;;;;5074740;28;20525;-83
2021/10/14 08:30:55;;;;;;;57.73;26.20;;;11.80;99.90;;;;;;5081322;28;20454;-82
2021/10/14 08:33:22;;;;;;;53.53;28.20;;;11.80;99.90;;;;;;5080721;28;20474;-83
2021/10/14 08:35:49;;;;;;;52.67;26.90;;;11.90;99.90;;;;;;5081581;28;20472;-83
2021/10/14 08:38:15;;;;;;;53.37;29.57;;;11.90;99.90;;;;;;5080009;28;21019;-83
2021/10/14 08:40:43;;;;;;;53.27;26.70;;;11.80;99.90;;;;;;5081348;28;20464;-83
2021/10/14 08:43:14;;;;;;;50.50;24.37;;;11.90;99.90;;;;;;5071676;28;20486;-83
2021/10/14 08:45:42;;;;;;;57.30;29.57;;;12.00;99.90;;;;;;5080675;28;20482;-83
2021/10/14 08:48:11;;;;;;;54.00;25.70;;;12.00;99.90;;;;;;5080054;28;20458;-82
2021/10/14 08:50:39;;;;;;;56.07;29.47;;;12.10;99.90;;;;;;5081535;28;20450;-83
2021/10/14 08:53:07;;;;;;;53.57;27.47;;;12.10;99.90;;;;;;5080689;28;20469;-82
2021/10/14 08:55:37;;;;;;;50.60;28.17;;;12.10;99.90;;;;;;5080523;28;20458;-83
2021/10/14 08:58:07;;;;;;;60.70;26.53;;;12.10;99.90;;;;;;5080760;28;20454;-84
2021/10/14 09:00:35;;;;;;;50.67;26.30;;;12.20;99.90;;;;;;5081303;28;20445;-83
2021/10/14 09:03:13;;;;;;;51.77;26.97;;;12.20;99.90;;;;;;5081386;28;20979;-83
2021/10/14 09:05:46;;;;;;;45.60;23.50;;;12.20;99.90;;;;;;5081520;28;20475;-83
2021/10/14 09:08:13;;;;;;;46.27;22.10;;;12.20;99.90;;;;;;5081271;28;20457;-83
2021/10/14 09:10:39;;;;;;;41.33;22.30;;;12.20;99.90;;;;;;5080265;28;20458;-83
2021/10/14 09:13:16;;;;;;;46.70;24.63;;;12.20;99.90;;;;;;5080379;28;20474;-83
2021/10/14 09:15:43;;;;;;;48.97;25.10;;;12.20;99.90;;;;;;5080676;28;20456;-83
2021/10/14 09:18:09;;;;;;;42.27;21.93;;;12.10;99.90;;;;;;5077710;28;20449;-83
2021/10/14 09:20:38;;;;;;;46.50;25.00;;;12.20;99.90;;;;;;5078156;28;20449;-82
2021/10/14 09:23:12;;;;;;;47.60;25.30;;;12.20;99.90;;;;;;5076749;28;20472;-83
2021/10/14 09:25:43;;;;;;;45.10;23.17;;;12.20;99.90;;;;;;5079231;28;20450;-83
2021/10/14 09:28:22;;;;;;;38.70;21.47;;;12.20;99.90;;;;;;5078432;28;20458;-83
2021/10/14 09:30:58;;;;;;;49.80;25.47;;;12.20;99.90;;;;;;5078673;28;20473;-83
2021/10/14 09:33:44;;;;;;;50.00;25.60;;;12.10;99.90;;;;;;5078605;28;20557;-84
2021/10/14 09:36:17;;;;;;;47.30;24.80;;;12.10;99.90;;;;;;5076779;28;20430;-83
2021/10/14 09:38:49;;;;;;;49.40;26.33;;;12.20;99.90;;;;;;5078040;28;20441;-83
2021/10/14 09:41:19;;;;;;;45.47;25.00;;;12.20;99.90;;;;;;5069014;28;20466;-82
2021/10/14 09:43:49;;;;;;;48.63;26.90;;;12.20;99.90;;;;;;5078782;28;20862;-82
2021/10/14 09:46:38;;;;;;;67.13;32.67;;;12.30;99.90;;;;;;5062262;28;21016;-83
2021/10/14 09:49:06;;;;;;;58.33;32.57;;;12.20;99.90;;;;;;5067738;28;20452;-81
2021/10/14 09:51:34;;;;;;;51.53;27.17;;;12.20;99.90;;;;;;5076178;28;21057;-83
2021/10/14 09:54:02;;;;;;;62.83;32.10;;;12.30;99.90;;;;;;5079532;28;20510;-83
2021/10/14 09:56:31;;;;;;;59.57;29.90;;;12.30;99.90;;;;;;5079737;28;20505;-82
2021/10/14 09:59:01;;;;;;;57.77;33.50;;;12.30;99.90;;;;;;5080079;28;20480;-82
2021/10/14 10:01:29;;;;;;;56.23;30.27;;;12.30;99.90;;;;;;5079108;28;20462;-82
2021/10/14 10:03:57;;;;;;;72.57;35.03;;;12.40;99.90;;;;;;5082984;28;20507;-82
2021/10/14 10:06:27;;;;;;;57.30;31.40;;;12.40;99.90;;;;;;5068991;28;20480;-82
2021/10/14 10:09:27;;;;;;;61.47;34.00;;;12.50;99.90;;;;;;5066277;28;21095;-82
2021/10/14 10:11:56;;;;;;;60.43;33.07;;;12.60;99.90;;;;;;5080227;28;20955;-83
2021/10/14 10:14:25;;;;;;;77.73;37.50;;;12.60;99.90;;;;;;5081609;28;21030;-82
2021/10/14 10:16:56;;;;;;;78.50;35.10;;;12.60;99.90;;;;;;5081169;28;20470;-81
2021/10/14 10:19:45;;;;;;;64.27;36.90;;;12.70;99.90;;;;;;5080981;28;20453;-83
2021/10/14 10:22:33;;;;;;;59.43;33.27;;;12.60;99.90;;;;;;5079004;28;20579;-83
2021/10/14 10:25:17;;;;;;;59.50;31.50;;;12.70;99.90;;;;;;5079287;28;20531;-83
2021/10/14 10:27:44;;;;;;;59.00;34.30;;;12.80;99.90;;;;;;5074614;28;20455;-81
2021/10/14 10:30:11;;;;;;;68.23;35.87;;;12.80;99.90;;;;;;5073257;28;20462;-83
2021/10/14 10:32:46;;;;;;;61.37;33.27;;;12.90;99.90;;;;;;5071195;28;20925;-82
2021/10/14 10:35:40;;;;;;;65.70;33.20;;;12.90;99.90;;;;;;5068564;28;20443;-83
2021/10/14 10:38:15;;;;;;;50.23;29.20;;;12.90;99.90;;;;;;5070078;28;20516;-84
2021/10/14 10:40:49;;;;;;;62.70;33.10;;;13.00;99.90;;;;;;5074992;28;20443;-82
2021/10/14 10:43:18;;;;;;;53.63;29.00;;;13.10;99.90;;;;;;5073792;28;20476;-83
2021/10/14 10:45:52;;;;;;;56.10;31.30;;;13.10;99.90;;;;;;5077344;28;20524;-82
2021/10/14 10:48:22;;;;;;;56.27;28.17;;;13.20;99.90;;;;;;5073619;28;20450;-82
2021/10/14 10:50:55;;;;;;;51.73;30.20;;;13.20;99.90;;;;;;5068183;28;20460;-83
2021/10/14 10:53:23;;;;;;;48.23;28.40;;;13.30;99.90;;;;;;5067630;28;21005;-83
2021/10/14 10:55:55;;;;;;;46.23;26.00;;;13.20;99.90;;;;;;5072979;28;20465;-84
2021/10/14 10:58:50;;;;;;;51.97;30.30;;;13.30;99.90;;;;;;5061228;28;20529;-84
2021/10/14 11:01:18;;;;;;;45.20;25.47;;;13.20;99.90;;;;;;5050523;28;20454;-85
2021/10/14 11:03:55;;;;;;;47.43;27.40;;;13.30;99.90;;;;;;5076577;28;20489;-83
2021/10/14 11:06:23;;;;;;;51.53;29.30;;;13.10;99.90;;;;;;5077759;28;20512;-85
2021/10/14 11:08:51;;;;;;;48.53;25.40;;;13.20;99.90;;;;;;5079763;28;20451;-85
2021/10/14 11:11:21;;;;;;;43.20;24.87;;;13.20;99.90;;;;;;5078796;28;20455;-86
2021/10/14 11:13:51;;;;;;;45.10;25.73;;;13.20;99.90;;;;;;5080895;28;20491;-85
2021/10/14 11:16:20;;;;;;;47.37;24.53;;;13.30;99.90;;;;;;5078498;28;20446;-85
2021/10/14 11:18:52;;;;;;;50.50;25.20;;;13.40;99.90;;;;;;5081551;28;20545;-85
2021/10/14 11:21:22;;;;;;;44.00;23.70;;;13.40;99.90;;;;;;5081156;28;20852;-85
2021/10/14 11:23:50;;;;;;;41.80;23.90;;;13.30;99.90;;;;;;5083484;28;20524;-85
2021/10/14 11:26:20;;;;;;;46.37;24.00;;;13.40;99.90;;;;;;5082272;28;20438;-84
2021/10/14 11:29:00;;;;;;;47.60;23.80;;;13.40;99.90;;;;;;5076402;28;20442;-86
2021/10/14 11:31:33;;;;;;;44.07;22.67;;;13.50;99.90;;;;;;5074473;28;20524;-85
2021/10/14 11:34:12;;;;;;;37.47;21.63;;;13.50;99.90;;;;;;5079004;28;20458;-85
2021/10/14 11:36:40;;;;;;;40.33;22.33;;;13.60;99.90;;;;;;5073997;28;20469;-86
2021/10/14 11:39:12;;;;;;;38.30;19.93;;;13.70;99.90;;;;;;5078121;28;20437;-86
2021/10/14 11:41:41;;;;;;;41.13;22.30;;;13.80;99.90;;;;;;5110426;22;20563;-81
2021/10/14 11:44:09;;;;;;;35.00;19.17;;;13.70;99.90;;;;;;5076136;28;20976;-82
2021/10/14 11:46:37;;;;;;;35.60;19.50;;;13.80;99.90;;;;;;5060064;28;20466;-82
2021/10/14 11:49:05;;;;;;;38.37;18.27;;;13.90;99.90;;;;;;5057139;28;20461;-82
2021/10/14 11:51:33;;;;;;;36.40;19.13;;;13.90;99.90;;;;;;5056662;28;20443;-82
2021/10/14 11:54:04;;;;;;;34.37;18.43;;;14.00;99.90;;;;;;5057707;28;20484;-82
2021/10/14 11:56:32;;;;;;;34.57;18.53;;;14.00;99.90;;;;;;5072198;28;20866;-82
2021/10/14 11:59:04;;;;;;;34.03;16.83;;;14.00;99.90;;;;;;5063932;28;20457;-82
2021/10/14 12:01:33;;;;;;;31.30;17.10;;;14.10;99.90;;;;;;5077465;28;20427;-81
2021/10/14 12:04:02;;;;;;;36.60;18.93;;;14.00;99.90;;;;;;5077041;28;20481;-81
2021/10/14 12:06:30;;;;;;;32.80;16.73;;;14.10;99.90;;;;;;5077047;28;20447;-80
2021/10/14 12:08:57;;;;;;;35.87;18.77;;;14.20;99.90;;;;;;5074312;28;20463;-82
2021/10/14 12:11:24;;;;;;;31.33;16.00;;;14.20;99.90;;;;;;5057475;28;20497;-82
2021/10/14 12:13:57;;;;;;;36.33;17.80;;;14.20;99.90;;;;;;5065321;28;20476;-81
2021/10/14 12:16:26;;;;;;;32.33;15.13;;;14.10;99.90;;;;;;5071170;28;20544;-81
2021/10/14 12:18:53;;;;;;;34.47;16.33;;;14.20;99.90;;;;;;5072237;28;20454;-82
2021/10/14 12:21:34;;;;;;;31.83;16.73;;;14.40;99.90;;;;;;5069349;28;20456;-82
2021/10/14 12:24:12;;;;;;;32.60;16.80;;;14.40;99.90;;;;;;5080580;28;20456;-81
2021/10/14 12:26:44;;;;;;;30.30;15.03;;;14.40;99.90;;;;;;5080622;28;20943;-82
2021/10/14 12:29:29;;;;;;;31.90;15.07;;;14.40;99.90;;;;;;5079949;28;20826;-82
2021/10/14 12:32:09;;;;;;;31.60;13.10;;;14.50;99.90;;;;;;5080399;28;20463;-82
2021/10/14 12:34:43;;;;;;;32.80;13.13;;;14.60;99.90;;;;;;5081206;28;20449;-80
2021/10/14 12:37:12;;;;;;;25.63;11.13;;;14.70;99.90;;;;;;5080586;28;20875;-82